createdAt,value
2019-03-16T00:00:40.514Z,12.20
2019-03-16T00:03:13.422Z,12.20
2019-03-16T00:05:46.444Z,12.10
2019-03-16T00:08:19.311Z,12.10
2019-03-16T00:10:52.177Z,12.10
2019-03-16T00:13:25.221Z,12.10
2019-03-16T00:16:00.236Z,12.10
2019-03-16T00:18:33.342Z,12.10
2019-03-16T00:21:06.160Z,12.10
2019-03-16T00:23:38.987Z,12.00
2019-03-16T00:26:11.928Z,12.10
2019-03-16T00:28:45.036Z,12.10
2019-03-16T00:31:17.912Z,12.10
2019-03-16T00:33:50.777Z,12.20
2019-03-16T00:36:23.582Z,12.20
2019-03-16T00:38:56.458Z,12.20
2019-03-16T00:41:29.503Z,12.20
2019-03-16T00:44:02.405Z,12.20
2019-03-16T00:46:35.365Z,12.20
2019-03-16T00:49:08.292Z,12.20
2019-03-16T00:51:41.096Z,12.10
2019-03-16T00:54:14.024Z,12.10
2019-03-16T00:56:46.855Z,12.10
2019-03-16T00:59:19.724Z,12.10
2019-03-16T01:01:52.566Z,12.20
2019-03-16T01:04:25.529Z,12.10
2019-03-16T01:06:59.651Z,12.10
2019-03-16T01:09:32.505Z,12.10
2019-03-16T01:12:05.371Z,12.10
2019-03-16T01:14:38.376Z,12.00
2019-03-16T01:17:11.284Z,12.00
2019-03-16T01:19:44.128Z,12.00
2019-03-16T01:22:16.957Z,12.00
2019-03-16T01:24:49.800Z,12.00
2019-03-16T01:27:22.665Z,12.00
2019-03-16T01:29:55.498Z,12.00
2019-03-16T01:32:40.156Z,12.00
2019-03-16T01:35:03.350Z,12.00
2019-03-16T01:37:37.502Z,12.00
2019-03-16T01:40:10.505Z,12.00
2019-03-16T01:42:44.477Z,12.00
2019-03-16T01:45:17.358Z,12.00
2019-03-16T01:47:50.190Z,11.90
2019-03-16T01:50:23.014Z,11.80
2019-03-16T01:52:58.175Z,11.80
2019-03-16T01:55:31.060Z,11.60
2019-03-16T01:58:03.896Z,11.00
2019-03-16T02:00:36.934Z,10.60
2019-03-16T02:03:09.779Z,10.20
2019-03-16T02:05:42.685Z,10.00
2019-03-16T02:08:15.796Z,9.80
2019-03-16T02:10:48.684Z,9.70
2019-03-16T02:13:21.515Z,9.70
2019-03-16T02:15:54.543Z,9.70
2019-03-16T02:18:27.330Z,9.60
2019-03-16T02:21:00.463Z,9.60
2019-03-16T02:23:33.278Z,9.50
2019-03-16T02:26:06.315Z,9.50
2019-03-16T02:28:39.153Z,9.50
2019-03-16T02:31:11.985Z,9.40
2019-03-16T02:33:44.779Z,9.40
2019-03-16T02:36:17.632Z,9.40
2019-03-16T02:38:50.663Z,9.40
2019-03-16T02:41:23.795Z,9.40
2019-03-16T02:43:56.623Z,9.30
2019-03-16T02:46:29.689Z,9.30
2019-03-16T02:49:02.507Z,9.30
2019-03-16T02:51:35.505Z,9.30
2019-03-16T02:54:08.314Z,9.30
2019-03-16T02:56:41.190Z,9.30
2019-03-16T02:59:15.243Z,9.30
2019-03-16T03:01:48.055Z,9.30
2019-03-16T03:04:20.893Z,9.20
2019-03-16T03:06:53.700Z,9.20
2019-03-16T03:09:26.561Z,9.20
2019-03-16T03:11:59.353Z,9.20
2019-03-16T03:14:32.392Z,9.20
2019-03-16T03:17:05.244Z,9.20
2019-03-16T03:19:38.155Z,9.20
2019-03-16T03:22:11.281Z,9.20
2019-03-16T03:24:44.785Z,9.20
2019-03-16T03:27:17.723Z,9.10
2019-03-16T03:30:02.729Z,9.10
2019-03-16T03:32:35.613Z,9.00
2019-03-16T03:35:08.728Z,9.00
2019-03-16T03:37:41.541Z,9.00
2019-03-16T03:40:14.440Z,8.90
2019-03-16T03:42:47.959Z,8.90
2019-03-16T03:45:20.815Z,8.90
2019-03-16T03:47:53.615Z,8.90
2019-03-16T03:50:26.438Z,8.90
2019-03-16T03:52:59.223Z,8.90
2019-03-16T03:55:32.058Z,8.80
2019-03-16T03:58:05.014Z,8.80
2019-03-16T04:00:37.873Z,8.90
2019-03-16T04:03:10.775Z,8.80
2019-03-16T04:05:43.576Z,8.80
2019-03-16T04:08:16.372Z,8.80
2019-03-16T04:10:49.209Z,8.80
2019-03-16T04:13:22.040Z,8.80
2019-03-16T04:15:55.145Z,8.80
2019-03-16T04:18:28.137Z,8.80
2019-03-16T04:21:01.120Z,8.80
2019-03-16T04:23:34.441Z,8.80
2019-03-16T04:26:07.467Z,8.70
2019-03-16T04:28:40.808Z,8.70
2019-03-16T04:31:14.927Z,8.70
2019-03-16T04:33:47.971Z,8.70
2019-03-16T04:36:21.093Z,8.80
2019-03-16T04:38:54.112Z,8.80
2019-03-16T04:41:27.091Z,8.80
2019-03-16T04:44:00.331Z,8.80
2019-03-16T04:46:33.444Z,8.80
2019-03-16T04:49:06.494Z,8.80
2019-03-16T04:51:39.506Z,8.80
2019-03-16T04:54:12.494Z,8.80
2019-03-16T04:56:45.479Z,8.80
2019-03-16T04:59:18.453Z,8.80
2019-03-16T05:01:51.453Z,8.80
2019-03-16T05:04:24.587Z,8.80
2019-03-16T05:06:57.511Z,8.80
2019-03-16T05:09:30.655Z,8.80
2019-03-16T05:12:03.685Z,8.80
2019-03-16T05:14:36.711Z,8.80
2019-03-16T05:17:09.839Z,8.80
2019-03-16T05:19:42.835Z,8.80
2019-03-16T05:22:17.059Z,8.80
2019-03-16T05:24:50.007Z,8.80
2019-03-16T05:27:23.209Z,8.90
2019-03-16T05:29:56.216Z,8.90
2019-03-16T05:32:29.283Z,8.90
2019-03-16T05:35:02.411Z,9.00
2019-03-16T05:37:35.363Z,9.10
2019-03-16T05:40:09.500Z,9.30
2019-03-16T05:42:42.778Z,9.40
2019-03-16T05:45:15.832Z,9.70
2019-03-16T05:47:48.792Z,10.00
2019-03-16T05:50:21.951Z,10.20
2019-03-16T05:52:55.190Z,10.30
2019-03-16T05:55:28.326Z,10.40
2019-03-16T05:58:01.413Z,10.40
2019-03-16T06:00:34.410Z,10.40
2019-03-16T06:03:07.491Z,10.50
2019-03-16T06:05:41.011Z,10.60
2019-03-16T06:08:14.171Z,10.60
2019-03-16T06:10:47.387Z,10.60
2019-03-16T06:13:20.453Z,10.70
2019-03-16T06:15:53.281Z,10.70
2019-03-16T06:18:26.106Z,10.80
2019-03-16T06:20:58.926Z,10.70
2019-03-16T06:23:31.766Z,10.80
2019-03-16T06:26:04.618Z,10.80
2019-03-16T06:28:38.473Z,10.90
2019-03-16T06:31:11.347Z,10.90
2019-03-16T06:33:44.223Z,11.00
2019-03-16T06:36:17.085Z,10.90
2019-03-16T06:38:49.934Z,10.90
2019-03-16T06:41:22.826Z,10.90
2019-03-16T06:43:56.669Z,10.90
2019-03-16T06:46:29.585Z,10.90
2019-03-16T06:49:02.409Z,10.90
2019-03-16T06:51:35.266Z,10.90
2019-03-16T06:54:08.121Z,11.00
2019-03-16T06:56:41.043Z,10.90
2019-03-16T06:59:13.872Z,11.00
2019-03-16T07:01:46.853Z,10.90
2019-03-16T07:04:19.690Z,10.90
2019-03-16T07:06:52.621Z,10.90
2019-03-16T07:09:25.630Z,10.90
2019-03-16T07:11:58.611Z,10.90
2019-03-16T07:14:31.459Z,10.90
2019-03-16T07:17:06.102Z,10.90
2019-03-16T07:19:39.004Z,10.90
2019-03-16T07:22:11.817Z,10.90
2019-03-16T07:24:51.489Z,10.80
2019-03-16T07:27:26.423Z,10.90
2019-03-16T07:29:57.661Z,10.80
2019-03-16T07:32:30.478Z,10.80
2019-03-16T07:35:04.127Z,10.70
2019-03-16T07:37:37.052Z,10.70
2019-03-16T07:40:13.012Z,10.70
2019-03-16T07:42:45.961Z,10.70
2019-03-16T07:45:18.887Z,10.60
2019-03-16T07:47:51.930Z,10.60
2019-03-16T07:50:24.843Z,10.50
2019-03-16T07:52:57.695Z,10.50
2019-03-16T07:55:30.580Z,10.50
2019-03-16T07:58:03.431Z,10.50
2019-03-16T08:00:36.280Z,10.50
2019-03-16T08:03:09.079Z,10.50
2019-03-16T08:05:41.953Z,10.50
2019-03-16T08:08:14.795Z,10.60
2019-03-16T08:10:47.700Z,10.70
2019-03-16T08:13:20.691Z,10.80
2019-03-16T08:15:53.586Z,10.80
2019-03-16T08:18:26.477Z,10.90
2019-03-16T08:20:59.444Z,11.00
2019-03-16T08:23:32.258Z,11.00
2019-03-16T08:26:05.117Z,11.00
2019-03-16T08:28:38.023Z,11.10
2019-03-16T08:31:10.879Z,11.10
2019-03-16T08:33:43.726Z,11.10
2019-03-16T08:36:16.602Z,11.10
2019-03-16T08:38:49.524Z,11.10
2019-03-16T08:41:22.542Z,11.20
2019-03-16T08:43:55.670Z,11.20
2019-03-16T08:46:28.631Z,11.20
2019-03-16T08:49:01.897Z,11.20
2019-03-16T08:51:34.768Z,11.20
2019-03-16T08:54:07.638Z,11.20
2019-03-16T08:56:40.516Z,11.20
2019-03-16T08:59:13.340Z,11.20
2019-03-16T09:01:46.196Z,11.20
2019-03-16T09:04:19.025Z,11.20
2019-03-16T09:06:53.025Z,11.30
2019-03-16T09:09:25.956Z,11.50
2019-03-16T09:11:58.814Z,11.60
2019-03-16T09:14:31.659Z,11.70
2019-03-16T09:17:04.808Z,11.80
2019-03-16T09:19:37.796Z,11.90
2019-03-16T09:22:10.697Z,11.90
2019-03-16T09:24:43.579Z,12.00
2019-03-16T09:27:16.458Z,12.10
2019-03-16T09:29:49.555Z,12.10
2019-03-16T09:32:22.419Z,12.10
2019-03-16T09:34:55.524Z,12.30
2019-03-16T09:37:28.458Z,12.20
2019-03-16T09:40:01.558Z,12.20
2019-03-16T09:42:35.527Z,12.30
2019-03-16T09:45:09.015Z,12.40
2019-03-16T09:47:41.920Z,12.60
2019-03-16T09:50:14.827Z,12.70
2019-03-16T09:52:47.639Z,12.60
2019-03-16T09:55:20.553Z,12.70
2019-03-16T09:57:53.421Z,12.70
2019-03-16T10:00:26.291Z,12.70
2019-03-16T10:02:59.108Z,12.60
2019-03-16T10:05:31.956Z,12.50
2019-03-16T10:08:04.965Z,12.50
2019-03-16T10:10:37.852Z,12.60
2019-03-16T10:13:10.808Z,12.50
2019-03-16T10:15:43.826Z,12.50
2019-03-16T10:18:16.674Z,12.30
2019-03-16T10:20:49.549Z,12.30
2019-03-16T10:23:22.377Z,12.30
2019-03-16T10:25:55.300Z,12.30
2019-03-16T10:28:28.224Z,12.20
2019-03-16T10:31:01.524Z,12.30
2019-03-16T10:33:34.325Z,12.40
2019-03-16T10:36:07.225Z,12.40
2019-03-16T10:38:40.121Z,12.30
2019-03-16T10:41:12.992Z,12.30
2019-03-16T10:43:45.800Z,12.30
2019-03-16T10:46:18.663Z,12.40
2019-03-16T10:48:51.512Z,12.30
2019-03-16T10:51:27.550Z,12.40
2019-03-16T10:53:59.458Z,12.50
2019-03-16T10:56:32.353Z,12.50
2019-03-16T10:59:05.247Z,12.60
2019-03-16T11:01:38.155Z,12.60
2019-03-16T11:04:11.031Z,12.70
2019-03-16T11:06:43.966Z,12.90
2019-03-16T11:09:16.775Z,12.90
2019-03-16T11:11:49.647Z,13.10
2019-03-16T11:14:22.523Z,13.20
2019-03-16T11:16:55.385Z,13.10
2019-03-16T11:19:28.211Z,12.90
2019-03-16T11:22:01.104Z,12.80
2019-03-16T11:24:35.047Z,12.70
2019-03-16T11:27:07.979Z,12.60
2019-03-16T11:29:40.834Z,12.60
2019-03-16T11:32:13.777Z,12.50
2019-03-16T11:34:47.936Z,12.50
2019-03-16T11:37:20.779Z,12.50
2019-03-16T11:39:53.749Z,12.60
2019-03-16T11:42:26.619Z,12.70
2019-03-16T11:44:59.527Z,12.80
2019-03-16T11:47:32.404Z,13.10
2019-03-16T11:50:06.445Z,13.20
2019-03-16T11:52:39.325Z,13.30
2019-03-16T11:55:12.200Z,13.20
2019-03-16T11:57:45.053Z,13.00
2019-03-16T12:00:17.894Z,12.70
2019-03-16T12:02:53.042Z,12.60
2019-03-16T12:05:25.930Z,12.50
2019-03-16T12:07:58.783Z,12.60
2019-03-16T12:10:31.824Z,12.60
2019-03-16T12:13:16.486Z,12.80
2019-03-16T12:15:39.659Z,12.80
2019-03-16T12:18:12.660Z,12.90
2019-03-16T12:20:45.581Z,13.00
2019-03-16T12:23:18.464Z,13.40
2019-03-16T12:25:51.351Z,13.60
2019-03-16T12:28:24.460Z,13.40
2019-03-16T12:30:57.397Z,13.40
2019-03-16T12:33:30.258Z,13.20
2019-03-16T12:36:03.149Z,13.00
2019-03-16T12:38:36.024Z,13.00
2019-03-16T12:41:08.887Z,12.80
2019-03-16T12:43:41.830Z,12.80
2019-03-16T12:46:15.791Z,12.60
2019-03-16T12:48:48.706Z,12.30
2019-03-16T12:51:21.583Z,12.30
2019-03-16T12:53:54.559Z,12.20
2019-03-16T12:56:27.423Z,12.10
2019-03-16T12:59:09.788Z,12.00
2019-03-16T13:01:35.048Z,12.10
2019-03-16T13:04:08.144Z,12.10
2019-03-16T13:06:40.994Z,12.00
2019-03-16T13:09:13.908Z,12.10
2019-03-16T13:11:46.877Z,12.00
2019-03-16T13:14:19.809Z,11.80
2019-03-16T13:16:52.669Z,11.80
2019-03-16T13:19:25.531Z,11.80
2019-03-16T13:21:58.393Z,11.70
2019-03-16T13:24:31.322Z,11.70
2019-03-16T13:27:05.285Z,11.60
2019-03-16T13:29:38.261Z,11.60
2019-03-16T13:32:11.114Z,11.60
2019-03-16T13:34:44.003Z,11.60
2019-03-16T13:37:17.064Z,11.60
2019-03-16T13:39:49.978Z,11.60
2019-03-16T13:42:23.306Z,11.60
2019-03-16T13:44:56.289Z,11.60
2019-03-16T13:47:29.149Z,11.60
2019-03-16T13:50:02.064Z,11.60
2019-03-16T13:52:34.931Z,11.60
2019-03-16T13:55:08.012Z,11.60
2019-03-16T13:57:41.976Z,11.50
2019-03-16T14:00:15.366Z,11.50
2019-03-16T14:02:48.301Z,11.50
2019-03-16T14:05:21.323Z,11.40
2019-03-16T14:07:55.316Z,11.40
2019-03-16T14:10:29.605Z,11.40
2019-03-16T14:13:02.525Z,11.40
2019-03-16T14:15:35.500Z,11.30
2019-03-16T14:18:08.424Z,11.40
2019-03-16T14:20:41.436Z,11.40
2019-03-16T14:23:14.303Z,11.40
2019-03-16T14:25:47.729Z,11.50
2019-03-16T14:28:20.599Z,11.50
2019-03-16T14:30:53.479Z,11.50
2019-03-16T14:33:26.337Z,11.60
2019-03-16T14:35:59.313Z,11.60
2019-03-16T14:38:32.171Z,11.60
2019-03-16T14:41:05.267Z,11.60
2019-03-16T14:43:38.208Z,11.60
2019-03-16T14:46:11.047Z,11.60
2019-03-16T14:48:44.176Z,11.60
2019-03-16T14:51:17.316Z,11.70
2019-03-16T14:53:50.368Z,11.80
2019-03-16T14:56:23.555Z,11.80
2019-03-16T14:58:56.670Z,11.80
2019-03-16T15:01:29.861Z,11.90
2019-03-16T15:04:03.037Z,12.00
2019-03-16T15:06:36.182Z,12.00
2019-03-16T15:09:09.330Z,12.00
2019-03-16T15:11:42.357Z,12.00
2019-03-16T15:14:21.701Z,12.00
2019-03-16T15:16:50.343Z,12.00
2019-03-16T15:19:25.298Z,11.90
2019-03-16T15:21:58.344Z,11.80
2019-03-16T15:24:31.509Z,11.90
2019-03-16T15:27:04.632Z,12.00
2019-03-16T15:29:37.680Z,12.00
2019-03-16T15:32:10.665Z,11.90
2019-03-16T15:34:43.620Z,11.90
2019-03-16T15:37:16.680Z,11.80
2019-03-16T15:39:49.783Z,11.80
2019-03-16T15:42:23.040Z,11.80
2019-03-16T15:44:56.171Z,11.80
2019-03-16T15:47:30.086Z,11.80
2019-03-16T15:50:04.048Z,11.80
2019-03-16T15:52:37.722Z,11.80
2019-03-16T15:55:11.433Z,11.80
2019-03-16T15:57:44.635Z,11.80
2019-03-16T16:00:18.237Z,11.70
2019-03-16T16:02:51.400Z,11.70
2019-03-16T16:05:24.533Z,11.70
2019-03-16T16:07:57.767Z,11.60
2019-03-16T16:10:30.913Z,11.60
2019-03-16T16:13:04.079Z,11.60
2019-03-16T16:15:37.169Z,11.60
2019-03-16T16:18:10.361Z,11.70
2019-03-16T16:20:43.510Z,11.60
2019-03-16T16:23:18.430Z,11.60
2019-03-16T16:25:51.490Z,11.50
2019-03-16T16:28:25.710Z,11.50
2019-03-16T16:30:58.851Z,11.50
2019-03-16T16:33:31.939Z,11.50
2019-03-16T16:36:04.994Z,11.50
2019-03-16T16:38:38.027Z,11.50
2019-03-16T16:41:11.182Z,11.50
2019-03-16T16:43:44.335Z,11.50
2019-03-16T16:46:17.368Z,11.50
2019-03-16T16:48:50.355Z,11.40
2019-03-16T16:51:23.425Z,11.40
2019-03-16T16:53:56.497Z,11.40
2019-03-16T16:56:29.675Z,11.40
2019-03-16T16:59:02.923Z,11.40
2019-03-16T17:01:35.980Z,11.40
2019-03-16T17:04:08.960Z,11.40
2019-03-16T17:06:42.004Z,11.40
2019-03-16T17:09:15.084Z,11.50
2019-03-16T17:11:48.112Z,11.40
2019-03-16T17:14:21.117Z,11.40
2019-03-16T17:16:54.213Z,11.40
2019-03-16T17:19:27.253Z,11.40
2019-03-16T17:22:00.434Z,11.40
2019-03-16T17:24:33.625Z,11.40
2019-03-16T17:27:06.777Z,11.40
2019-03-16T17:29:40.416Z,11.40
2019-03-16T17:32:13.547Z,11.40
2019-03-16T17:34:47.657Z,11.40
2019-03-16T17:37:20.717Z,11.30
2019-03-16T17:39:53.881Z,11.30
2019-03-16T17:42:27.000Z,11.40
2019-03-16T17:45:00.077Z,11.40
2019-03-16T17:47:33.616Z,11.40
2019-03-16T17:50:07.567Z,11.40
2019-03-16T17:52:40.601Z,11.30
2019-03-16T17:55:13.904Z,11.30
2019-03-16T17:57:47.064Z,11.30
2019-03-16T18:00:20.181Z,11.30
2019-03-16T18:02:53.278Z,11.30
2019-03-16T18:05:26.491Z,11.20
2019-03-16T18:07:59.553Z,11.20
2019-03-16T18:10:32.651Z,11.20
2019-03-16T18:13:05.803Z,11.20
2019-03-16T18:15:38.830Z,11.20
2019-03-16T18:18:11.838Z,11.10
2019-03-16T18:20:44.996Z,11.20
2019-03-16T18:23:18.141Z,11.20
2019-03-16T18:25:51.285Z,11.10
2019-03-16T18:28:24.267Z,11.10
2019-03-16T18:30:58.437Z,11.10
2019-03-16T18:33:31.446Z,11.10
2019-03-16T18:36:04.695Z,11.10
2019-03-16T18:38:37.864Z,11.00
2019-03-16T18:41:10.904Z,10.90
2019-03-16T18:43:43.982Z,10.80
2019-03-16T18:46:18.163Z,10.70
2019-03-16T18:48:51.524Z,10.70
2019-03-16T18:51:24.605Z,10.60
2019-03-16T18:53:57.497Z,10.60
2019-03-16T18:56:30.423Z,10.60
2019-03-16T18:59:03.315Z,10.50
2019-03-16T19:01:36.191Z,10.40
2019-03-16T19:04:09.087Z,10.30
2019-03-16T19:06:42.024Z,10.30
2019-03-16T19:09:14.997Z,10.20
2019-03-16T19:11:47.897Z,10.20
2019-03-16T19:14:20.772Z,10.20
2019-03-16T19:16:53.745Z,10.10
2019-03-16T19:19:26.700Z,10.10
2019-03-16T19:21:59.758Z,10.10
2019-03-16T19:24:32.633Z,10.10
2019-03-16T19:27:05.767Z,10.10
2019-03-16T19:29:38.668Z,10.10
2019-03-16T19:32:11.565Z,10.00
2019-03-16T19:34:44.405Z,10.10
2019-03-16T19:37:17.271Z,10.10
2019-03-16T19:39:50.204Z,10.10
2019-03-16T19:42:23.044Z,10.10
2019-03-16T19:44:56.225Z,10.10
2019-03-16T19:47:29.086Z,10.20
2019-03-16T19:50:02.283Z,10.20
2019-03-16T19:52:35.389Z,10.20
2019-03-16T19:55:08.867Z,10.20
2019-03-16T19:57:41.882Z,10.10
2019-03-16T20:00:15.185Z,10.20
2019-03-16T20:02:51.535Z,10.20
2019-03-16T20:05:23.091Z,10.20
2019-03-16T20:07:56.105Z,10.20
2019-03-16T20:10:29.246Z,10.10
2019-03-16T20:13:02.407Z,10.10
2019-03-16T20:15:36.535Z,10.10
2019-03-16T20:18:09.565Z,10.10
2019-03-16T20:20:42.476Z,10.00
2019-03-16T20:23:15.375Z,9.90
2019-03-16T20:25:48.391Z,9.90
2019-03-16T20:28:21.298Z,9.70
2019-03-16T20:30:54.323Z,9.60
2019-03-16T20:33:27.193Z,9.40
2019-03-16T20:36:00.214Z,9.30
2019-03-16T20:38:33.095Z,9.10
2019-03-16T20:41:06.126Z,9.10
2019-03-16T20:43:39.021Z,9.00
2019-03-16T20:46:12.000Z,8.80
2019-03-16T20:48:44.905Z,8.80
2019-03-16T20:51:17.838Z,8.70
2019-03-16T20:53:50.701Z,8.70
2019-03-16T20:56:23.581Z,8.60
2019-03-16T20:58:56.429Z,8.60
2019-03-16T21:01:29.444Z,8.60
2019-03-16T21:04:03.100Z,8.50
2019-03-16T21:06:36.131Z,8.40
2019-03-16T21:09:08.948Z,8.30
2019-03-16T21:11:41.969Z,8.10
2019-03-16T21:14:14.858Z,8.00
2019-03-16T21:16:48.093Z,7.80
2019-03-16T21:19:22.191Z,8.00
2019-03-16T21:21:55.173Z,8.20
2019-03-16T21:24:28.016Z,8.30
2019-03-16T21:27:00.909Z,8.40
2019-03-16T21:29:34.894Z,8.40
2019-03-16T21:32:07.953Z,8.40
2019-03-16T21:34:40.907Z,8.30
2019-03-16T21:37:13.791Z,8.30
2019-03-16T21:39:46.643Z,8.30
2019-03-16T21:42:19.551Z,8.20
2019-03-16T21:44:52.398Z,8.20
2019-03-16T21:47:25.316Z,8.20
2019-03-16T21:50:00.012Z,8.10
2019-03-16T21:52:32.986Z,8.20
2019-03-16T21:55:06.856Z,8.20
2019-03-16T21:57:39.927Z,8.10
2019-03-16T22:00:14.887Z,8.20
2019-03-16T22:02:47.917Z,8.20
2019-03-16T22:05:20.845Z,8.30
2019-03-16T22:07:54.152Z,8.40
2019-03-16T22:10:27.108Z,8.40
2019-03-16T22:13:00.012Z,8.40
2019-03-16T22:15:32.912Z,8.40
2019-03-16T22:18:05.903Z,8.50
2019-03-16T22:20:39.876Z,8.40
2019-03-16T22:23:12.802Z,8.60
2019-03-16T22:25:45.656Z,8.60
2019-03-16T22:28:18.769Z,8.60
2019-03-16T22:30:51.716Z,8.60
2019-03-16T22:33:24.628Z,8.70
2019-03-16T22:35:57.519Z,8.70
2019-03-16T22:38:30.420Z,8.80
2019-03-16T22:41:03.390Z,8.80
2019-03-16T22:43:36.191Z,8.80
2019-03-16T22:46:09.129Z,8.80
2019-03-16T22:48:42.079Z,8.80
2019-03-16T22:51:15.871Z,8.80
2019-03-16T22:53:49.922Z,8.80
2019-03-16T22:56:22.793Z,8.80
2019-03-16T22:58:55.656Z,8.80
2019-03-16T23:01:28.813Z,8.70
2019-03-16T23:04:06.923Z,8.70
2019-03-16T23:06:36.481Z,8.60
2019-03-16T23:09:09.358Z,8.60
2019-03-16T23:11:42.205Z,8.60
2019-03-16T23:14:16.894Z,8.60
2019-03-16T23:16:49.739Z,8.60
2019-03-16T23:19:22.554Z,8.60
2019-03-16T23:21:55.411Z,8.60
2019-03-16T23:24:28.260Z,8.60
2019-03-16T23:27:01.220Z,8.60
2019-03-16T23:29:34.177Z,8.60
2019-03-16T23:32:07.078Z,8.60
2019-03-16T23:34:42.628Z,8.70
2019-03-16T23:37:15.514Z,8.70
2019-03-16T23:39:48.459Z,8.70
2019-03-16T23:42:21.312Z,8.70
2019-03-16T23:44:54.221Z,8.80
2019-03-16T23:47:30.252Z,8.70
2019-03-16T23:50:03.791Z,8.80
2019-03-16T23:52:37.173Z,8.70
2019-03-16T23:55:10.736Z,8.80
2019-03-16T23:57:43.644Z,8.70
